Flight Track Log - Related Links

Times and Time Zones

All times are in EDT time to prevent confusion due to time zone crossing. See the SWA1761 flight status page for this flight to view local times or setup timezone preferences in your user account.


Time Position Orientation Groundspeed Altitude Reporting Facility
EDT Latitude Longitude Course Direction KTS MPH feet Rate Location/Type
Mon 03:58:07 PM 41.7667 -87.7667 222° Southwest 144 166 2,000  Level Chicago TRACON
Mon 03:59:48 PM 41.7050 -87.8403 222° Southwest 194 223 5,900 2,798 Climbing Chicago Center
Mon 04:00:50 PM 41.6331 -87.8850 205° Southwest 237 273 9,600 2,952 Climbing Chicago Center
Mon 04:01:52 PM 41.5608 -87.9314 206° Southwest 283 326 12,000 1,790 Climbing Chicago Center
Mon 04:02:54 PM 41.4872 -87.9783 206° Southwest 292 336 13,300 2,371 Climbing Chicago Center
Mon 04:03:56 PM 41.3931 -88.0389 206° Southwest 336 387 16,900 3,339 Climbing Chicago Center
Mon 04:04:58 PM 41.2936 -88.0683 193° South 369 425 20,200 3,000 Climbing Chicago Center
Mon 04:06:00 PM 41.1892 -88.1014 193° South 382 440 23,100 2,516 Climbing Chicago Center
Mon 04:07:02 PM 41.0794 -88.1331 192° South 402 463 25,400 2,400 Climbing Chicago Center
Mon 04:08:05 PM 40.9383 -88.1717 192° South 428 493 28,100 2,400 Climbing Chicago Center
Mon 04:09:07 PM 40.8197 -88.2056 192° South 436 502 30,400 2,226 Climbing Chicago Center
Mon 04:10:09 PM 40.7014 -88.2394 192° South 438 504 32,700 2,081 Climbing Chicago Center
Mon 04:11:11 PM 40.5828 -88.2678 190° South 435 501 34,700 1,887 Climbing Chicago Center
Mon 04:12:13 PM 40.4650 -88.2956 190° South 433 498 36,600 1,839 Climbing Chicago Center
Mon 04:13:15 PM 40.3253 -88.3292 190° South 428 493 38,500 1,500 Climbing Chicago Center
Mon 04:14:17 PM 40.2086 -88.3578 191° South 429 494 39,700 783 Climbing Chicago Center
Mon 04:15:10 PM 40.1228 -88.3789 191° South 428 493 40,000 157 Climbing Kansas City Center
Mon 04:16:12 PM 39.9825 -88.4119 190° South 427 491 40,000  Level Kansas City Center
Mon 04:17:14 PM 39.8667 -88.4381 190° South 424 488 40,000  Level Kansas City Center
Mon 04:18:16 PM 39.7500 -88.4656 190° South 424 488 40,000  Level Kansas City Center
Mon 04:19:18 PM 39.6342 -88.4933 190° South 425 489 40,000  Level Kansas City Center
Mon 04:20:20 PM 39.5150 -88.5236 191° South 430 495 40,000  Level Kansas City Center
Mon 04:21:22 PM 39.3703 -88.5578 190° South 435 501 40,000  Level Kansas City Center
Mon 04:22:24 PM 39.2531 -88.5858 190° South 431 496 40,000  Level Kansas City Center
Mon 04:23:26 PM 39.1497 -88.6086 190° South 435 501 40,000  Level Kansas City Center
Mon 04:24:28 PM 39.0081 -88.6417 190° South 432 497 40,000  Level Kansas City Center
Mon 04:25:30 PM 38.8914 -88.6694 190° South 428 493 40,000  Level Kansas City Center
Mon 04:26:32 PM 38.7744 -88.6958 190° South 425 489 40,000  Level Kansas City Center
Mon 04:27:34 PM 38.6567 -88.7225 190° South 427 491 40,000  Level Kansas City Center
Mon 04:28:36 PM 38.5214 -88.7544 190° South 431 496 40,000  Level Kansas City Center
Mon 04:29:38 PM 38.4039 -88.7819 190° South 430 495 40,000  Level Kansas City Center
Mon 04:30:40 PM 38.3014 -88.8039 190° South 431 496 40,000  Level Kansas City Center
Mon 04:31:42 PM 38.1586 -88.8353 190° South 433 498 40,000  Level Kansas City Center
Mon 04:32:44 PM 38.0400 -88.8622 190° South 432 497 40,000  Level Kansas City Center
Mon 04:33:46 PM 37.9214 -88.8889 190° South 432 497 40,000  Level Kansas City Center
Mon 04:34:48 PM 37.7881 -88.9189 190° South 432 497 40,000  Level Kansas City Center
Mon 04:35:50 PM 37.6711 -88.9439 190° South 427 491 40,000  Level Kansas City Center
Mon 04:36:52 PM 37.5533 -88.9697 190° South 428 493 40,000  Level Kansas City Center
Mon 04:37:54 PM 37.4361 -88.9986 191° South 427 491 40,000  Level Kansas City Center
Mon 04:38:56 PM 37.3183 -89.0247 190° South 428 493 40,000  Level Kansas City Center
Mon 04:39:58 PM 37.2000 -89.0494 189° South 429 494 40,000  Level Kansas City Center
Mon 04:40:57 PM 37.0794 -89.0803 192° South 428 493 40,000  Level Memphis Center
Mon 04:41:57 PM 36.9589 -89.1056 190° South 428 493 40,000  Level Memphis Center
Mon 04:42:57 PM 36.8403 -89.1333 191° South 428 493 40,000  Level Memphis Center
Mon 04:43:57 PM 36.7261 -89.1558 189° South 428 493 40,000  Level Memphis Center
Mon 04:44:57 PM 36.6094 -89.1808 190° South 428 493 40,000  Level Memphis Center
Mon 04:45:57 PM 36.4908 -89.2058 190° South 428 493 40,000  Level Memphis Center
Mon 04:46:57 PM 36.3597 -89.2308 189° South 428 493 40,000  Level Memphis Center
Mon 04:47:57 PM 36.2369 -89.2556 189° South 440 506 40,000  Level Memphis Center
Mon 04:48:57 PM 36.1247 -89.2828 191° South 445 512 40,000  Level Memphis Center
Mon 04:49:57 PM 36.0103 -89.3075 190° South 435 501 40,000  Level Memphis Center
Mon 04:50:57 PM 35.8917 -89.3319 189° South 428 493 40,000  Level Memphis Center
Mon 04:51:57 PM 35.7731 -89.3567 190° South 428 493 40,000  Level Memphis Center
Mon 04:52:57 PM 35.6731 -89.3783 190° South 428 493 40,000  Level Memphis Center
Mon 04:53:57 PM 35.5564 -89.4053 191° South 417 480 40,000  Level Memphis Center
Mon 04:54:57 PM 35.4314 -89.4294 189° South 422 486 40,000  Level Memphis Center
Mon 04:55:57 PM 35.3128 -89.4536 189° South 427 491 40,000  Level Memphis Center
Mon 04:56:57 PM 35.1983 -89.4778 190° South 428 493 40,000  Level Memphis Center
Mon 04:57:57 PM 35.0836 -89.5019 190° South 428 493 40,000  Level Memphis Center
Mon 04:58:57 PM 34.9669 -89.5233 189° South 428 493 40,000  Level Memphis Center
Mon 04:59:57 PM 34.8503 -89.5447 189° South 428 493 40,000  Level Memphis Center
Mon 05:00:57 PM 34.7419 -89.5686 190° South 428 493 40,000  Level Memphis Center
Mon 05:01:57 PM 34.6272 -89.5975 192° South 428 493 40,000  Level Memphis Center
Mon 05:02:57 PM 34.5128 -89.6186 189° South 423 487 40,000  Level Memphis Center
Mon 05:03:57 PM 34.4022 -89.6447 191° South 423 487 40,000  Level Memphis Center
Mon 05:04:57 PM 34.2750 -89.6708 190° South 417 480 40,000  Level Memphis Center
Mon 05:05:57 PM 34.1647 -89.6944 190° South 412 474 40,000  Level Memphis Center
Mon 05:06:57 PM 34.0500 -89.7178 190° South 412 474 40,000  Level Memphis Center
Mon 05:07:57 PM 33.9353 -89.7389 189° South 412 474 40,000  Level Memphis Center
Mon 05:08:57 PM 33.8228 -89.7647 191° South 412 474 40,000  Level Memphis Center
Mon 05:09:57 PM 33.7144 -89.7878 190° South 407 468 40,000  Level Memphis Center
Mon 05:10:57 PM 33.5997 -89.8111 190° South 412 474 40,000  Level Memphis Center
Mon 05:11:57 PM 33.4850 -89.8342 190° South 412 474 40,000  Level Memphis Center
Mon 05:12:57 PM 33.3661 -89.8572 189° South 418 481 40,000  Level Memphis Center
Mon 05:13:57 PM 33.2492 -89.8803 189° South 424 488 40,000 -500 Level Memphis Center
Mon 05:14:57 PM 33.1344 -89.9033 190° South 424 488 39,000 -900 Descending Memphis Center
Mon 05:15:57 PM 33.0406 -89.9211 189° South 430 495 38,200 -900 Descending Memphis Center
Mon 05:16:57 PM 32.9156 -89.9464 190° South 425 489 37,200 -950 Descending Memphis Center
Mon 05:17:57 PM 32.7967 -89.9692 189° South 430 495 36,300 -600 Descending Memphis Center
Mon 05:18:57 PM 32.6817 -89.9919 189° South 430 495 36,000 -150 Descending Memphis Center
Mon 05:19:57 PM 32.5650 -90.0147 189° South 430 495 36,000  Level Memphis Center
Mon 05:20:57 PM 32.4461 -90.0372 189° South 430 495 36,000  Level Memphis Center
Mon 05:21:57 PM 32.3272 -90.0622 190° South 430 495 36,000 -100 Level Memphis Center
Mon 05:22:57 PM 32.2081 -90.0847 189° South 430 495 35,800 -500 Descending Memphis Center
Mon 05:23:57 PM 32.0892 -90.1072 189° South 430 495 35,000 -1,519 Descending Memphis Center
Mon 05:25:31 PM 31.8978 -90.1458 190° South 430 495 31,900 -2,231 Descending Houston Center
Mon 05:26:33 PM 31.7792 -90.1672 189° South 431 496 29,200 -1,887 Descending Houston Center
Mon 05:27:35 PM 31.6586 -90.1917 190° South 438 504 28,000 -581 Descending Houston Center
Mon 05:28:37 PM 31.5425 -90.2128 189° South 428 493 28,000 -145 Level Houston Center
Mon 05:29:39 PM 31.4289 -90.2342 189° South 419 482 27,700 -1,056 Descending Houston Center
Mon 05:30:42 PM 31.2914 -90.2567 188° South 413 475 25,800 -2,016 Descending Houston Center
Mon 05:31:44 PM 31.1808 -90.2494 177° South 404 465 23,500 -2,226 Descending Houston Center
Mon 05:32:46 PM 31.0711 -90.2419 177° South 399 459 21,200 -2,177 Descending Houston Center
Mon 05:33:48 PM 30.9644 -90.2328 176° South 387 445 19,000 -2,236 Descending Houston Center
Mon 05:34:36 PM 30.8694 -90.2275 177° South 365 420 17,100 -2,167 Descending Houston Center
Mon 05:35:36 PM 30.7711 -90.2194 176° South 350 403 15,100 -2,053 Descending Houston Center
Mon 05:35:52 PM 30.7478 -90.2178 176° South 352 405 14,500 -2,327 Descending Houston Center
Mon 05:36:25 PM 30.6997 -90.2053 167° South 350 403 13,200 -2,032 Descending Houston Center
Mon 05:36:54 PM 30.6564 -90.1867 160° South 344 396 12,400 -1,967 Descending Houston Center
Mon 05:37:26 PM 30.6022 -90.1658 162° South 337 388 11,200 -1,839 Descending Houston Center
Mon 05:37:56 PM 30.5694 -90.1522 160° South 335 386 10,500 -1,377 Descending Houston Center
Mon 05:38:27 PM 30.5219 -90.1331 161° South 307 353 9,800 -1,452 Descending Houston Center
Mon 05:38:58 PM 30.4925 -90.1194 158° South 309 356 9,000 -2,091 Descending Houston Center
Mon 05:39:33 PM 30.4414 -90.0978 160° South 276 318 7,500 -1,905 Descending Houston Center
Mon 05:40:01 PM 30.4200 -90.0892 161° South 284 327 7,000 -1,855 Descending Houston Center
Mon 05:40:28 PM 30.3744 -90.0933 185° South 272 313 5,800 -1,935 Descending Houston Center
Mon 05:41:03 PM 30.3367 -90.1136 205° Southwest 275 316 5,000 -787 Descending Houston Center
Mon 05:41:29 PM 30.3067 -90.1297 205° Southwest 265 305 5,000 -194 Level Houston Center
Mon 05:42:05 PM 30.2703 -90.1467 202° Southwest 268 308 4,800 -393 Descending Houston Center
Mon 05:42:30 PM 30.2408 -90.1614 203° Southwest 253 291 4,600 -581 Descending Houston Center
Mon 05:43:07 PM 30.2119 -90.1764 204° Southwest 249 287 4,200 -800 Descending Houston Center
Mon 05:43:30 PM 30.1892 -90.1875 203° Southwest 198 228 3,800 -968 Descending Houston Center
Mon 05:44:09 PM 30.1611 -90.1964 195° South 216 249 3,200 -982 Descending Houston Center
Mon 05:44:25 PM 30.1394 -90.2017 192° South 190 219 2,900 -968 Descending Houston Center
Mon 05:45:11 PM 30.1094 -90.2131 198° South 201 231 2,200 -1,000 Descending Houston Center
Mon 05:46:13 PM 30.0528 -90.2300 195° South 188 216 1,100 -919 Descending Houston Center
Mon 05:47:15 PM 30.0181 -90.2422 197° South 154 177 300 -435 Descending Houston Center
Mon 05:48:17 PM 29.9828 -90.2542 196° South 150 173 200 -97 Descending Houston Center
Mon 05:50:00 PM 29.9833 -90.2500 190° South  Level FlightAware Approximate

Login

Don't have an account? Register now (free) for customized features, flight alerts, and more!